Time;durP1;ratioP1;P1;durP2;ratioP2;P2;SDS_P1;SDS_P2;PMS_P1;PMS_P2;Temp;Humidity;BMP_temperature;BMP_pressure;BME280_temperature;BME280_humidity;BME280_pressure;Samples;Min_cycle;Max_cycle;Signal;HPM_P1;HPM_P2
2023/01/16 00:00:26;;;;;;;2.60;0.80;;;;;;;;;;5067013;28;20060;-76
2023/01/16 00:02:56;;;;;;;2.47;0.68;;;;;;;;;;5066984;28;20051;-76
2023/01/16 00:05:27;;;;;;;5.28;0.90;;;;;;;;;;5067958;28;20052;-76
2023/01/16 00:07:58;;;;;;;5.32;0.88;;;;;;;;;;5067688;28;20510;-76
2023/01/16 00:10:28;;;;;;;6.90;1.17;;;;;;;;;;5067399;28;20063;-76
2023/01/16 00:12:59;;;;;;;2.80;0.80;;;;;;;;;;5067587;28;20048;-76
2023/01/16 00:15:32;;;;;;;3.15;0.88;;;;;;;;;;5067102;28;20504;-76
2023/01/16 00:18:03;;;;;;;6.68;1.10;;;;;;;;;;5067529;28;20048;-76
2023/01/16 00:20:33;;;;;;;4.93;0.90;;;;;;;;;;5067501;28;20059;-75
2023/01/16 00:23:03;;;;;;;3.17;0.90;;;;;;;;;;5067633;28;20056;-76
2023/01/16 00:25:38;;;;;;;4.03;0.75;;;;;;;;;;5067243;28;20055;-76
2023/01/16 00:28:10;;;;;;;2.83;0.63;;;;;;;;;;5067513;28;20045;-76
2023/01/16 00:30:42;;;;;;;5.78;0.98;;;;;;;;;;5067460;28;20079;-76
2023/01/16 00:33:20;;;;;;;4.88;1.20;;;;;;;;;;5069757;28;20419;-75
2023/01/16 00:35:52;;;;;;;5.65;0.77;;;;;;;;;;5069129;28;20052;-74
2023/01/16 00:38:23;;;;;;;4.28;1.15;;;;;;;;;;5067448;28;20055;-75
2023/01/16 00:40:54;;;;;;;5.78;1.23;;;;;;;;;;5067454;28;20048;-75
2023/01/16 00:43:24;;;;;;;2.95;0.90;;;;;;;;;;5066850;28;20048;-75
2023/01/16 00:45:56;;;;;;;3.92;1.50;;;;;;;;;;5067084;28;20048;-75
2023/01/16 00:48:26;;;;;;;3.10;0.70;;;;;;;;;;5066915;28;20040;-75
2023/01/16 00:50:59;;;;;;;5.38;1.05;;;;;;;;;;5066740;28;20056;-75
2023/01/16 00:53:30;;;;;;;4.85;1.20;;;;;;;;;;5066876;28;20418;-77
2023/01/16 00:55:59;;;;;;;6.00;1.02;;;;;;;;;;5066940;28;20048;-75
2023/01/16 00:58:32;;;;;;;1.42;0.93;;;;;;;;;;5067247;28;20056;-75
2023/01/16 01:01:03;;;;;;;3.78;1.40;;;;;;;;;;5066210;28;20048;-75
2023/01/16 01:03:33;;;;;;;5.75;1.02;;;;;;;;;;5065955;28;20052;-76
2023/01/16 01:06:11;;;;;;;4.20;1.00;;;;;;;;;;5064505;28;20052;-75
2023/01/16 01:08:44;;;;;;;6.88;1.10;;;;;;;;;;5065860;28;20871;-74
2023/01/16 01:11:15;;;;;;;9.65;1.38;;;;;;;;;;5065414;28;20391;-74
2023/01/16 01:13:46;;;;;;;5.22;1.15;;;;;;;;;;5066077;28;20062;-74
2023/01/16 01:16:16;;;;;;;6.45;1.10;;;;;;;;;;5048857;28;20494;-75
2023/01/16 01:18:47;;;;;;;2.00;0.90;;;;;;;;;;5066179;28;20055;-74
2023/01/16 01:21:17;;;;;;;8.88;1.48;;;;;;;;;;5066440;28;20440;-72
2023/01/16 01:23:48;;;;;;;7.43;1.40;;;;;;;;;;5066021;28;20427;-74
2023/01/16 01:26:18;;;;;;;5.10;1.00;;;;;;;;;;5066035;28;20048;-73
2023/01/16 01:28:48;;;;;;;4.70;0.80;;;;;;;;;;5065936;28;20052;-73
2023/01/16 01:31:18;;;;;;;6.68;1.35;;;;;;;;;;5066233;28;20055;-75
2023/01/16 01:33:49;;;;;;;4.50;1.02;;;;;;;;;;5049321;28;20063;-74
2023/01/16 01:36:20;;;;;;;4.65;0.80;;;;;;;;;;5048387;28;20048;-74
2023/01/16 01:38:50;;;;;;;6.50;1.27;;;;;;;;;;5066384;28;20067;-73
2023/01/16 01:41:22;;;;;;;5.90;0.90;;;;;;;;;;5066564;28;20492;-74
2023/01/16 01:43:56;;;;;;;4.70;1.08;;;;;;;;;;5066216;28;20061;-74
2023/01/16 01:46:46;;;;;;;8.43;1.35;;;;;;;;;;5066749;28;20055;-75
2023/01/16 01:49:37;;;;;;;6.13;1.27;;;;;;;;;;5066071;28;20690;-75
2023/01/16 01:52:09;;;;;;;2.15;1.25;;;;;;;;;;5047865;28;20535;-75
2023/01/16 01:54:45;;;;;;;2.63;1.08;;;;;;;;;;5066291;28;20059;-75
2023/01/16 01:57:27;;;;;;;4.28;1.00;;;;;;;;;;5066119;28;20047;-74
2023/01/16 02:00:09;;;;;;;8.27;1.25;;;;;;;;;;5065487;28;20053;-74
2023/01/16 02:02:48;;;;;;;2.72;0.80;;;;;;;;;;5066049;28;20071;-75
2023/01/16 02:05:29;;;;;;;8.05;0.90;;;;;;;;;;5066085;28;20051;-75
2023/01/16 02:08:02;;;;;;;8.50;1.00;;;;;;;;;;5065896;28;20049;-76
2023/01/16 02:10:40;;;;;;;3.78;0.82;;;;;;;;;;5066179;28;20041;-75
2023/01/16 02:13:11;;;;;;;3.92;1.05;;;;;;;;;;5066213;28;20059;-75
2023/01/16 02:21:43;;;;;;;9.38;1.10;;;;;;;;;;5066105;28;20049;-75
2023/01/16 02:24:31;;;;;;;5.03;1.10;;;;;;;;;;5069239;28;20063;-75
2023/01/16 02:27:20;;;;;;;5.15;0.82;;;;;;;;;;5069155;28;20056;-75
2023/01/16 02:30:09;;;;;;;7.60;1.20;;;;;;;;;;5070157;28;20040;-74
2023/01/16 02:32:51;;;;;;;6.53;1.17;;;;;;;;;;5051416;28;20048;-76
2023/01/16 02:35:59;;;;;;;2.75;0.77;;;;;;;;;;5069467;28;20044;-75
2023/01/16 02:39:00;;;;;;;5.97;0.80;;;;;;;;;;5069427;28;20063;-76
2023/01/16 02:41:41;;;;;;;5.72;1.30;;;;;;;;;;5069443;28;20051;-75
2023/01/16 02:44:26;;;;;;;6.00;0.90;;;;;;;;;;5069804;28;20533;-75
2023/01/16 02:47:11;;;;;;;3.88;0.90;;;;;;;;;;5069308;28;20055;-76
2023/01/16 02:50:00;;;;;;;4.93;0.82;;;;;;;;;;5068990;28;20048;-75
2023/01/16 02:52:46;;;;;;;7.22;1.27;;;;;;;;;;5069561;28;20420;-75
2023/01/16 02:55:32;;;;;;;4.55;0.82;;;;;;;;;;5069048;28;20048;-75
2023/01/16 02:58:05;;;;;;;4.78;1.20;;;;;;;;;;5051292;28;20391;-75
2023/01/16 03:00:36;;;;;;;5.78;1.00;;;;;;;;;;5069490;28;20040;-75
2023/01/16 03:03:16;;;;;;;4.13;1.58;;;;;;;;;;5069485;28;20411;-75
2023/01/16 03:05:50;;;;;;;8.00;1.25;;;;;;;;;;5068962;28;20906;-75
2023/01/16 03:08:28;;;;;;;4.80;1.00;;;;;;;;;;5051273;28;20538;-76
2023/01/16 06:23:54;;;;;;;;;;;;;;;;;;4970548;24;20067;-73
2023/01/16 06:26:26;;;;;;;5.15;1.80;;;;;;;;;;4802039;29;20276;-74
2023/01/16 06:28:56;;;;;;;1.58;1.38;;;;;;;;;;4801941;29;20538;-74
2023/01/16 06:31:26;;;;;;;7.00;1.75;;;;;;;;;;4800756;29;20074;-74
2023/01/16 06:33:56;;;;;;;7.47;1.50;;;;;;;;;;4801951;29;20073;-74
2023/01/16 06:36:26;;;;;;;5.50;1.80;;;;;;;;;;4802142;29;20062;-74
2023/01/16 06:38:57;;;;;;;3.40;1.83;;;;;;;;;;4800861;29;20070;-74
2023/01/16 06:41:27;;;;;;;3.20;1.67;;;;;;;;;;4801101;29;20069;-74
2023/01/16 06:43:57;;;;;;;4.20;2.15;;;;;;;;;;4802123;29;20070;-74
2023/01/16 06:46:28;;;;;;;4.63;1.80;;;;;;;;;;4802039;29;20066;-74
2023/01/16 06:48:58;;;;;;;7.85;2.42;;;;;;;;;;4801040;29;20066;-74
2023/01/16 06:51:29;;;;;;;3.25;1.80;;;;;;;;;;4801938;29;20054;-74
2023/01/16 06:54:01;;;;;;;7.53;1.90;;;;;;;;;;4801961;29;20058;-74
2023/01/16 06:56:32;;;;;;;6.63;2.13;;;;;;;;;;4800824;29;20047;-74
2023/01/16 06:59:02;;;;;;;3.97;1.63;;;;;;;;;;4801519;29;20063;-74
2023/01/16 07:01:33;;;;;;;8.05;2.58;;;;;;;;;;4802235;29;20130;-74
2023/01/16 07:04:06;;;;;;;5.85;1.67;;;;;;;;;;4801054;29;20055;-74
2023/01/16 07:06:38;;;;;;;3.22;1.70;;;;;;;;;;4801571;29;20066;-74
2023/01/16 07:09:09;;;;;;;3.05;1.58;;;;;;;;;;4801395;29;20113;-74
2023/01/16 07:11:39;;;;;;;16.35;1.73;;;;;;;;;;4802333;29;20046;-74
2023/01/16 07:22:39;;;;;;;3.03;1.40;;;;;;;;;;4799183;29;20047;-74
2023/01/16 07:25:19;;;;;;;2.55;1.38;;;;;;;;;;4783631;30;20586;-74
2023/01/16 07:27:51;;;;;;;7.18;1.52;;;;;;;;;;4784699;30;20059;-74
2023/01/16 07:30:22;;;;;;;3.97;1.30;;;;;;;;;;4784526;30;20058;-74
2023/01/16 07:32:52;;;;;;;3.40;1.40;;;;;;;;;;4783693;30;20554;-74
2023/01/16 07:35:24;;;;;;;4.45;1.17;;;;;;;;;;4783327;30;20059;-74
2023/01/16 07:37:56;;;;;;;7.18;1.80;;;;;;;;;;4782953;29;20055;-74
2023/01/16 07:40:27;;;;;;;6.07;1.70;;;;;;;;;;4782201;30;21060;-74
2023/01/16 07:42:56;;;;;;;13.52;1.92;;;;;;;;;;4783530;30;20059;-74
2023/01/16 07:45:27;;;;;;;4.13;1.35;;;;;;;;;;4783907;30;20078;-74
2023/01/16 07:48:00;;;;;;;4.40;2.15;;;;;;;;;;4783837;30;20705;-74
2023/01/16 07:50:30;;;;;;;5.18;1.60;;;;;;;;;;4783630;30;20044;-74
2023/01/16 07:53:00;;;;;;;3.33;1.55;;;;;;;;;;4781529;30;20427;-74
2023/01/16 07:55:31;;;;;;;3.28;1.40;;;;;;;;;;4783264;30;20051;-74
2023/01/16 07:58:01;;;;;;;5.70;1.60;;;;;;;;;;4783042;30;20123;-74
2023/01/16 08:00:33;;;;;;;6.15;1.63;;;;;;;;;;4783456;29;20055;-74
2023/01/16 08:03:03;;;;;;;3.10;1.38;;;;;;;;;;4782593;30;20055;-74
2023/01/16 08:05:33;;;;;;;4.75;1.67;;;;;;;;;;4782897;29;20518;-74
2023/01/16 08:08:04;;;;;;;9.18;1.70;;;;;;;;;;4782986;30;20059;-74
2023/01/16 08:10:35;;;;;;;5.40;1.27;;;;;;;;;;4767104;30;20070;-74
2023/01/16 08:13:07;;;;;;;4.70;1.60;;;;;;;;;;4783114;30;20070;-74
2023/01/16 08:15:38;;;;;;;3.38;1.60;;;;;;;;;;4781491;30;20078;-74
2023/01/16 08:18:09;;;;;;;6.15;1.52;;;;;;;;;;4782900;30;20051;-74
2023/01/16 08:20:41;;;;;;;4.10;1.70;;;;;;;;;;4782705;29;20051;-74
2023/01/16 08:23:12;;;;;;;2.47;1.63;;;;;;;;;;4782536;29;20427;-74
2023/01/16 08:25:43;;;;;;;6.57;2.08;;;;;;;;;;4782578;30;20416;-74
2023/01/16 08:28:13;;;;;;;4.40;1.80;;;;;;;;;;4783158;30;20051;-74
2023/01/16 08:30:45;;;;;;;5.63;1.83;;;;;;;;;;4782836;30;20051;-74
2023/01/16 08:33:16;;;;;;;5.03;1.23;;;;;;;;;;4782441;29;20055;-75
2023/01/16 08:35:46;;;;;;;3.92;1.50;;;;;;;;;;4781042;29;20059;-75
2023/01/16 08:38:18;;;;;;;3.83;1.65;;;;;;;;;;4780859;30;20055;-75
2023/01/16 08:40:49;;;;;;;5.20;1.52;;;;;;;;;;4781419;30;20067;-75
2023/01/16 08:52:01;;;;;;;4.82;1.40;;;;;;;;;;4782111;30;20051;-75
2023/01/16 08:54:32;;;;;;;3.92;1.50;;;;;;;;;;4782335;29;20063;-75
2023/01/16 08:57:04;;;;;;;3.55;1.48;;;;;;;;;;4782386;30;20507;-76
2023/01/16 08:59:34;;;;;;;5.70;1.27;;;;;;;;;;4782438;30;20074;-75
2023/01/16 09:02:07;;;;;;;3.78;1.20;;;;;;;;;;4782535;30;20559;-75
2023/01/16 09:04:37;;;;;;;5.43;1.60;;;;;;;;;;4780683;30;20503;-75
2023/01/16 09:07:09;;;;;;;4.00;1.30;;;;;;;;;;4782243;30;20051;-75
2023/01/16 09:09:40;;;;;;;6.55;1.60;;;;;;;;;;4781681;30;20055;-75
2023/01/16 09:15:01;;;;;;;5.63;1.88;;;;;;;;;;4782614;30;20063;-75
2023/01/16 09:17:31;;;;;;;4.03;1.95;;;;;;;;;;4782076;29;20077;-75
2023/01/16 09:20:02;;;;;;;4.15;1.60;;;;;;;;;;4780046;30;20059;-75
2023/01/16 09:22:32;;;;;;;5.35;1.30;;;;;;;;;;4781792;30;20480;-75
2023/01/16 09:25:05;;;;;;;5.45;1.30;;;;;;;;;;4782365;30;20081;-75
2023/01/16 09:27:35;;;;;;;5.30;1.17;;;;;;;;;;4781849;30;20062;-75
2023/01/16 09:30:06;;;;;;;3.92;1.70;;;;;;;;;;4782077;29;20055;-75
2023/01/16 09:32:37;;;;;;;6.60;1.98;;;;;;;;;;4781226;29;20055;-75
2023/01/16 09:35:07;;;;;;;4.60;1.60;;;;;;;;;;4783106;30;20062;-75
2023/01/16 09:37:40;;;;;;;3.72;1.50;;;;;;;;;;4780462;30;20055;-75
2023/01/16 09:40:20;;;;;;;4.32;1.60;;;;;;;;;;4781952;30;20048;-75
2023/01/16 09:45:56;;;;;;;5.25;1.20;;;;;;;;;;4765224;30;20066;-75
2023/01/16 09:48:32;;;;;;;3.83;1.48;;;;;;;;;;4781317;30;20419;-74
2023/01/16 09:51:08;;;;;;;4.80;1.40;;;;;;;;;;4781503;30;20411;-76
2023/01/16 09:59:41;;;;;;;7.55;1.80;;;;;;;;;;4781291;30;20047;-76
2023/01/16 10:02:33;;;;;;;7.65;1.10;;;;;;;;;;4781381;30;20043;-75
2023/01/16 10:05:05;;;;;;;7.97;1.40;;;;;;;;;;4781058;30;20063;-75
2023/01/16 10:07:36;;;;;;;7.43;1.83;;;;;;;;;;4781722;30;20082;-75
2023/01/16 10:10:34;;;;;;;7.10;1.27;;;;;;;;;;4780179;30;20051;-75
2023/01/16 10:13:40;;;;;;;8.30;1.13;;;;;;;;;;4781506;30;20173;-77
2023/01/16 10:16:18;;;;;;;2.40;0.82;;;;;;;;;;4781234;30;20051;-76
2023/01/16 10:19:07;;;;;;;2.42;0.80;;;;;;;;;;4781345;30;20047;-81
2023/01/16 10:22:03;;;;;;;8.55;1.45;;;;;;;;;;4782177;30;20064;-76
2023/01/16 10:24:41;;;;;;;7.95;1.10;;;;;;;;;;4779941;29;20062;-76
2023/01/16 10:27:27;;;;;;;4.50;0.80;;;;;;;;;;4799324;29;20065;-75
2023/01/16 10:30:07;;;;;;;10.52;1.23;;;;;;;;;;4799234;29;20053;-76
2023/01/16 10:32:56;;;;;;;1.33;0.80;;;;;;;;;;4799025;29;20050;-76
2023/01/16 10:35:32;;;;;;;2.33;1.27;;;;;;;;;;4782826;29;20419;-76
2023/01/16 10:38:18;;;;;;;7.28;1.10;;;;;;;;;;4799514;29;20054;-75
2023/01/16 10:40:53;;;;;;;3.92;0.90;;;;;;;;;;4799134;29;20051;-77
2023/01/16 10:49:26;;;;;;;;;;;;;;;;;;4803047;29;20070;-75
2023/01/16 10:52:04;;;;;;;2.15;0.60;;;;;;;;;;4814000;29;19939;-75
2023/01/16 10:54:35;;;;;;;5.88;0.95;;;;;;;;;;4820558;29;20494;-75
2023/01/16 10:57:24;;;;;;;1.60;0.40;;;;;;;;;;4803752;29;20078;-76
2023/01/16 11:00:07;;;;;;;3.78;0.57;;;;;;;;;;4819929;29;20050;-76
2023/01/16 11:02:44;;;;;;;4.75;0.60;;;;;;;;;;4803670;29;20051;-75
2023/01/16 11:05:35;;;;;;;2.30;0.65;;;;;;;;;;4820342;29;20050;-75
2023/01/16 11:08:11;;;;;;;2.80;0.60;;;;;;;;;;4820284;29;20062;-76
2023/01/16 11:10:45;;;;;;;2.25;0.70;;;;;;;;;;4819620;29;20061;-75
2023/01/16 11:19:27;;;;;;;7.53;1.00;;;;;;;;;;4819829;29;19924;-74
2023/01/16 11:22:08;;;;;;;4.07;1.02;;;;;;;;;;4820167;29;20046;-75
2023/01/16 11:24:40;;;;;;;5.80;0.80;;;;;;;;;;4804005;29;20061;-73
2023/01/16 11:27:22;;;;;;;2.50;0.80;;;;;;;;;;4799823;29;20063;-75
2023/01/16 11:29:59;;;;;;;3.65;0.60;;;;;;;;;;4801758;29;20059;-79
2023/01/16 11:32:34;;;;;;;3.88;0.70;;;;;;;;;;4801228;29;20054;-75
2023/01/16 11:35:12;;;;;;;6.05;1.30;;;;;;;;;;4799384;29;20047;-75
2023/01/16 11:37:45;;;;;;;1.45;0.63;;;;;;;;;;4801284;29;20055;-75
2023/01/16 11:40:22;;;;;;;6.07;0.60;;;;;;;;;;4801613;29;20083;-76
2023/01/16 11:46:05;;;;;;;3.15;0.50;;;;;;;;;;4801830;29;20055;-76
2023/01/16 11:48:38;;;;;;;;;;;;;;;;;;4801788;29;20055;-76
2023/01/16 11:51:15;;;;;;;4.05;0.80;;;;;;;;;;4801719;29;19925;-76
2023/01/16 11:53:49;;;;;;;3.75;0.70;;;;;;;;;;4801655;29;21157;-77
2023/01/16 11:56:35;;;;;;;2.10;0.57;;;;;;;;;;4800943;29;20054;-76
2023/01/16 11:59:18;;;;;;;2.08;0.40;;;;;;;;;;4801727;29;20046;-76
2023/01/16 12:02:18;;;;;;;3.40;0.60;;;;;;;;;;4801414;29;20510;-77
2023/01/16 12:08:52;;;;;;;0.88;0.52;;;;;;;;;;4800962;29;20051;-76
2023/01/16 12:11:34;;;;;;;3.88;0.63;;;;;;;;;;4800846;29;20051;-76
2023/01/16 12:14:28;;;;;;;1.52;0.47;;;;;;;;;;4801100;29;20061;-76
2023/01/16 12:17:16;;;;;;;;;;;;;;;;;;4799489;29;20062;-77
2023/01/16 12:20:17;;;;;;;0.55;0.40;;;;;;;;;;4800247;29;19929;-76
2023/01/16 12:23:10;;;;;;;1.08;0.55;;;;;;;;;;4800321;29;20054;-75
2023/01/16 12:25:51;;;;;;;2.95;0.30;;;;;;;;;;4800072;29;20062;-76
2023/01/16 12:28:31;;;;;;;0.85;0.40;;;;;;;;;;4800937;29;20062;-76
2023/01/16 12:31:35;;;;;;;1.55;0.35;;;;;;;;;;4800432;29;20373;-77
2023/01/16 12:34:45;;;;;;;1.52;0.30;;;;;;;;;;4800643;29;20522;-76
2023/01/16 12:37:34;;;;;;;0.68;0.30;;;;;;;;;;4800921;29;20059;-78
2023/01/16 12:40:16;;;;;;;0.50;0.20;;;;;;;;;;4800833;29;20069;-76
2023/01/16 12:43:22;;;;;;;0.47;0.30;;;;;;;;;;4800593;29;20074;-81
2023/01/16 12:46:02;;;;;;;0.10;0.10;;;;;;;;;;4800415;29;20057;-76
2023/01/16 12:49:02;;;;;;;0.55;0.22;;;;;;;;;;4798021;29;20063;-77
2023/01/16 12:51:47;;;;;;;1.92;0.98;;;;;;;;;;4800675;29;20419;-77
2023/01/16 12:54:32;;;;;;;1.70;0.30;;;;;;;;;;4799874;29;20054;-79
2023/01/16 12:57:38;;;;;;;0.52;0.20;;;;;;;;;;4800110;29;20569;-76
2023/01/16 13:00:14;;;;;;;0.55;0.20;;;;;;;;;;4799936;29;20057;-78
2023/01/16 13:02:54;;;;;;;1.88;0.40;;;;;;;;;;4800167;29;20047;-76
2023/01/16 13:05:28;;;;;;;1.55;0.30;;;;;;;;;;4800071;29;20046;-75
2023/01/16 13:08:08;;;;;;;0.38;0.30;;;;;;;;;;4800462;29;20054;-81
2023/01/16 13:13:43;;;;;;;4.45;0.80;;;;;;;;;;4800662;29;20078;-76
2023/01/16 13:16:33;;;;;;;;;;;;;;;;;;4800523;29;20415;-77
2023/01/16 13:19:21;;;;;;;1.05;0.55;;;;;;;;;;4799833;29;19932;-77
2023/01/16 13:22:20;;;;;;;0.90;0.50;;;;;;;;;;4799853;29;20055;-75
2023/01/16 13:24:58;;;;;;;3.53;0.50;;;;;;;;;;4799267;29;20066;-76
2023/01/16 13:27:58;;;;;;;1.33;0.40;;;;;;;;;;4799282;29;20084;-76
2023/01/16 13:30:29;;;;;;;3.58;2.17;;;;;;;;;;4799839;29;20047;-77
2023/01/16 13:33:10;;;;;;;1.20;0.60;;;;;;;;;;4800201;29;20050;-76
2023/01/16 13:35:56;;;;;;;1.48;0.80;;;;;;;;;;4799976;29;20061;-76
2023/01/16 13:38:39;;;;;;;0.82;0.40;;;;;;;;;;4799343;29;20070;-77
2023/01/16 13:41:11;;;;;;;0.80;0.30;;;;;;;;;;4800052;29;20055;-76
2023/01/16 13:46:47;;;;;;;1.05;0.20;;;;;;;;;;4799417;29;20065;-77
2023/01/16 13:49:28;;;;;;;0.10;0.10;;;;;;;;;;4799335;29;20054;-77
2023/01/16 13:52:01;;;;;;;1.20;0.17;;;;;;;;;;4800337;29;20047;-77
2023/01/16 13:54:43;;;;;;;0.32;0.20;;;;;;;;;;4799842;29;20058;-77
2023/01/16 13:57:20;;;;;;;1.10;0.30;;;;;;;;;;4799680;29;20051;-76
2023/01/16 13:59:53;;;;;;;0.50;0.22;;;;;;;;;;4799913;29;20055;-76
2023/01/16 14:02:37;;;;;;;0.50;0.20;;;;;;;;;;4799787;29;20054;-78
2023/01/16 14:05:23;;;;;;;0.40;0.40;;;;;;;;;;4798877;29;20051;-77
2023/01/16 14:10:51;;;;;;;0.55;0.20;;;;;;;;;;4799824;29;20047;-77
2023/01/16 14:13:24;;;;;;;0.40;0.20;;;;;;;;;;4799496;29;20050;-76
2023/01/16 14:18:56;;;;;;;0.55;0.30;;;;;;;;;;4801929;29;20054;-75
2023/01/16 14:21:39;;;;;;;0.88;0.30;;;;;;;;;;4803085;29;20055;-77
2023/01/16 14:24:19;;;;;;;1.38;0.43;;;;;;;;;;4803915;29;20491;-75
2023/01/16 14:26:54;;;;;;;1.75;0.77;;;;;;;;;;4807444;29;20030;-77
2023/01/16 14:29:46;;;;;;;2.10;0.43;;;;;;;;;;4810273;29;20046;-76
2023/01/16 14:32:23;;;;;;;1.40;0.45;;;;;;;;;;4803489;29;20054;-74
2023/01/16 14:34:59;;;;;;;0.82;0.40;;;;;;;;;;4801518;29;20665;-75
2023/01/16 14:37:38;;;;;;;0.50;0.30;;;;;;;;;;4802830;29;20074;-77
2023/01/16 14:40:12;;;;;;;0.28;0.28;;;;;;;;;;4802776;29;20102;-77
2023/01/16 14:55:58;;;;;;;2.13;0.40;;;;;;;;;;4802477;29;20533;-77
2023/01/16 14:58:48;;;;;;;0.80;0.50;;;;;;;;;;4801859;29;20415;-78
2023/01/16 15:04:54;;;;;;;0.85;0.60;;;;;;;;;;4802078;29;20054;-77
2023/01/16 15:07:37;;;;;;;1.15;0.40;;;;;;;;;;4802428;29;20050;-77
2023/01/16 15:10:28;;;;;;;1.80;0.40;;;;;;;;;;4801751;29;20544;-79
2023/01/16 15:13:25;;;;;;;0.80;0.20;;;;;;;;;;4802169;29;20529;-77
2023/01/16 15:16:08;;;;;;;1.33;0.98;;;;;;;;;;4801859;29;20042;-79
2023/01/16 15:24:25;;;;;;;2.28;0.40;;;;;;;;;;4801603;29;20062;-76
2023/01/16 15:27:18;;;;;;;0.40;0.30;;;;;;;;;;4801394;29;20077;-77
2023/01/16 15:29:51;;;;;;;1.00;0.40;;;;;;;;;;4800122;29;20156;-76
2023/01/16 15:32:22;;;;;;;1.73;0.40;;;;;;;;;;4802082;29;20050;-77
2023/01/16 15:35:18;;;;;;;1.15;0.30;;;;;;;;;;4802130;29;20100;-76
2023/01/16 15:37:55;;;;;;;0.38;0.20;;;;;;;;;;4800135;29;20054;-77
2023/01/16 15:40:29;;;;;;;3.22;0.30;;;;;;;;;;4800378;29;20529;-76
2023/01/16 15:49:16;;;;;;;0.57;0.20;;;;;;;;;;4801348;29;20062;-75
2023/01/16 15:51:58;;;;;;;0.93;0.30;;;;;;;;;;4801280;29;20054;-77
2023/01/16 15:54:29;;;;;;;0.50;0.20;;;;;;;;;;4802015;29;20051;-80
2023/01/16 15:56:59;;;;;;;0.73;0.30;;;;;;;;;;4801675;29;20050;-76
2023/01/16 15:59:49;;;;;;;1.55;0.40;;;;;;;;;;4802439;29;20514;-76
2023/01/16 16:02:31;;;;;;;2.45;0.80;;;;;;;;;;4800734;29;20049;-75
2023/01/16 16:05:03;;;;;;;1.52;0.60;;;;;;;;;;4801156;29;20784;-75
2023/01/16 16:07:35;;;;;;;2.65;0.40;;;;;;;;;;4800818;29;20051;-76
2023/01/16 16:11:51;;;;;;;3.00;0.52;;;;;;;;;;4801036;29;20054;-76
2023/01/16 16:13:11;;;;;;;0.30;0.30;;;;;;;;;;4801120;29;20082;-76
2023/01/16 16:18:58;;;;;;;1.20;0.38;;;;;;;;;;4800278;29;20043;-78
2023/01/16 16:24:40;;;;;;;3.05;0.40;;;;;;;;;;4800449;29;20067;-78
2023/01/16 16:27:15;;;;;;;0.82;0.40;;;;;;;;;;4801587;29;20402;-78
2023/01/16 16:29:53;;;;;;;1.25;0.30;;;;;;;;;;4801205;29;20043;-77
2023/01/16 16:32:25;;;;;;;0.52;0.30;;;;;;;;;;4800945;29;20055;-78
2023/01/16 16:34:57;;;;;;;0.63;0.30;;;;;;;;;;4799513;29;20746;-78
2023/01/16 16:37:28;;;;;;;0.38;0.20;;;;;;;;;;4798772;29;20070;-78
2023/01/16 16:40:16;;;;;;;2.00;0.30;;;;;;;;;;4800106;29;20054;-78
2023/01/16 16:42:52;;;;;;;3.95;0.30;;;;;;;;;;4800191;29;20051;-77
2023/01/16 16:45:25;;;;;;;1.20;0.30;;;;;;;;;;4800811;29;20061;-78
2023/01/16 16:48:24;;;;;;;0.77;0.30;;;;;;;;;;4799577;29;20051;-78
2023/01/16 16:51:27;;;;;;;1.35;0.30;;;;;;;;;;4800139;29;20058;-77
2023/01/16 16:54:18;;;;;;;2.08;0.40;;;;;;;;;;4801149;29;20055;-78
2023/01/16 16:56:55;;;;;;;3.72;0.50;;;;;;;;;;4800799;29;20051;-76
2023/01/16 16:59:30;;;;;;;0.38;0.25;;;;;;;;;;4800368;29;20054;-78
2023/01/16 17:02:03;;;;;;;2.50;0.30;;;;;;;;;;4800540;29;20063;-78
2023/01/16 17:04:35;;;;;;;0.52;0.30;;;;;;;;;;4798172;29;20058;-78
2023/01/16 17:07:08;;;;;;;1.15;0.30;;;;;;;;;;4800088;29;20055;-81
2023/01/16 17:09:38;;;;;;;1.80;0.50;;;;;;;;;;4800296;29;20075;-78
2023/01/16 17:12:17;;;;;;;2.25;0.50;;;;;;;;;;4800850;29;20054;-77
2023/01/16 17:14:48;;;;;;;1.50;0.30;;;;;;;;;;4799964;29;20051;-77
2023/01/16 17:17:19;;;;;;;2.50;0.40;;;;;;;;;;4799707;29;20534;-77
2023/01/16 17:19:50;;;;;;;1.02;0.43;;;;;;;;;;4800045;29;20047;-79
2023/01/16 17:22:20;;;;;;;1.33;0.32;;;;;;;;;;4798682;29;20533;-77
2023/01/16 17:24:54;;;;;;;1.88;0.52;;;;;;;;;;4800087;29;20507;-76
2023/01/16 17:27:25;;;;;;;2.40;0.45;;;;;;;;;;4799552;29;20058;-77
2023/01/16 17:29:54;;;;;;;2.60;0.60;;;;;;;;;;4799796;29;20118;-77
2023/01/16 17:32:30;;;;;;;0.85;0.30;;;;;;;;;;4799426;29;20059;-77
2023/01/16 17:35:00;;;;;;;0.70;0.63;;;;;;;;;;4800157;29;20081;-77
2023/01/16 17:37:31;;;;;;;5.85;1.10;;;;;;;;;;4799599;29;20047;-78
2023/01/16 17:40:01;;;;;;;3.00;0.30;;;;;;;;;;4799449;29;20051;-76
2023/01/16 17:45:52;;;;;;;2.67;0.43;;;;;;;;;;4779185;30;20066;-76
2023/01/16 17:48:25;;;;;;;5.32;0.77;;;;;;;;;;4779087;30;20092;-77
2023/01/16 17:50:58;;;;;;;1.42;0.50;;;;;;;;;;4791728;29;20066;-75
2023/01/16 17:53:30;;;;;;;0.93;0.60;;;;;;;;;;4802791;29;20055;-78
2023/01/16 17:56:05;;;;;;;1.25;0.40;;;;;;;;;;4803432;29;20134;-81
2023/01/16 18:01:23;;;;;;;1.75;0.52;;;;;;;;;;4803746;29;20050;-78
2023/01/16 18:04:01;;;;;;;5.18;0.60;;;;;;;;;;4803553;29;20491;-77
2023/01/16 18:06:40;;;;;;;1.88;0.50;;;;;;;;;;4802777;29;20078;-77
2023/01/16 18:09:13;;;;;;;2.97;0.60;;;;;;;;;;4802776;29;20043;-75
2023/01/16 18:17:25;;;;;;;2.13;0.50;;;;;;;;;;4804275;29;20054;-79
2023/01/16 18:20:01;;;;;;;1.10;0.50;;;;;;;;;;4805761;29;20751;-76
2023/01/16 18:22:36;;;;;;;1.63;0.90;;;;;;;;;;4806630;29;20449;-81
2023/01/16 18:25:08;;;;;;;1.23;0.50;;;;;;;;;;4801857;29;20103;-76
2023/01/16 18:27:39;;;;;;;1.10;0.50;;;;;;;;;;4802914;29;20515;-82
2023/01/16 18:30:12;;;;;;;2.72;0.57;;;;;;;;;;4802431;29;20059;-76
2023/01/16 18:32:42;;;;;;;1.33;0.57;;;;;;;;;;4802941;29;20046;-76
2023/01/16 18:35:14;;;;;;;1.70;0.57;;;;;;;;;;4803113;29;20066;-75
2023/01/16 19:03:16;;;;;;;3.13;0.60;;;;;;;;;;4801740;29;20503;-77
2023/01/16 19:05:47;;;;;;;2.88;0.43;;;;;;;;;;4801473;29;20054;-76
2023/01/16 19:08:22;;;;;;;3.72;0.55;;;;;;;;;;4802423;29;20161;-76
2023/01/16 19:10:56;;;;;;;1.63;0.50;;;;;;;;;;4802436;29;20050;-76
2023/01/16 19:13:36;;;;;;;3.35;0.60;;;;;;;;;;4802443;29;20415;-79
2023/01/16 19:19:00;;;;;;;5.75;0.60;;;;;;;;;;4802201;29;20059;-77
2023/01/16 19:21:34;;;;;;;0.70;0.35;;;;;;;;;;4800865;29;20055;-75
2023/01/16 19:24:08;;;;;;;2.85;0.65;;;;;;;;;;4801731;29;20066;-76
2023/01/16 19:26:41;;;;;;;1.65;0.40;;;;;;;;;;4801902;29;20058;-76
2023/01/16 19:29:14;;;;;;;4.55;0.90;;;;;;;;;;4802956;29;20407;-78
2023/01/16 19:31:45;;;;;;;4.45;0.95;;;;;;;;;;4802063;29;20510;-75
2023/01/16 19:34:18;;;;;;;4.60;0.77;;;;;;;;;;4802188;29;20055;-76
2023/01/16 19:36:48;;;;;;;2.78;0.65;;;;;;;;;;4801774;29;20059;-75
2023/01/16 19:39:19;;;;;;;1.77;0.50;;;;;;;;;;4801650;29;20046;-76
2023/01/16 19:47:34;;;;;;;2.03;0.65;;;;;;;;;;4802428;29;20066;-76
2023/01/16 19:50:06;;;;;;;6.20;0.68;;;;;;;;;;4801959;29;20054;-76
2023/01/16 19:52:36;;;;;;;0.77;0.50;;;;;;;;;;4801533;29;20055;-74
2023/01/16 19:55:10;;;;;;;2.42;0.60;;;;;;;;;;4801661;29;20050;-75
2023/01/16 19:57:40;;;;;;;2.47;0.55;;;;;;;;;;4800034;29;20059;-76
2023/01/16 20:00:14;;;;;;;2.67;0.60;;;;;;;;;;4800614;29;20055;-75
2023/01/16 20:02:46;;;;;;;5.05;0.93;;;;;;;;;;4801318;29;20054;-74
2023/01/16 20:05:17;;;;;;;1.70;0.73;;;;;;;;;;4801698;29;20051;-76
2023/01/16 20:07:49;;;;;;;6.25;0.57;;;;;;;;;;4800118;29;20051;-75
2023/01/16 20:10:19;;;;;;;2.33;0.50;;;;;;;;;;4799958;29;20055;-76
2023/01/16 20:12:50;;;;;;;3.85;0.55;;;;;;;;;;4801764;29;20059;-76
2023/01/16 20:15:20;;;;;;;2.50;0.50;;;;;;;;;;4801384;29;20066;-76
2023/01/16 20:17:50;;;;;;;5.32;0.80;;;;;;;;;;4801780;29;20387;-75
2023/01/16 20:20:21;;;;;;;4.57;0.70;;;;;;;;;;4801052;29;20078;-75
2023/01/16 20:22:51;;;;;;;3.67;0.43;;;;;;;;;;4801193;29;20054;-75
2023/01/16 20:25:21;;;;;;;3.20;0.40;;;;;;;;;;4801076;29;20055;-77
2023/01/16 20:27:52;;;;;;;5.05;0.75;;;;;;;;;;4801336;29;20434;-76
2023/01/16 20:33:13;;;;;;;4.75;1.30;;;;;;;;;;4801510;29;20407;-76
2023/01/16 20:35:44;;;;;;;7.80;0.60;;;;;;;;;;4799456;29;20062;-75
2023/01/16 20:38:16;;;;;;;3.75;0.80;;;;;;;;;;4800256;29;20058;-77
2023/01/16 20:40:47;;;;;;;2.83;0.40;;;;;;;;;;4800799;29;20518;-77
2023/01/16 20:46:06;;;;;;;14.77;0.75;;;;;;;;;;4801150;29;20047;-76
2023/01/16 20:48:38;;;;;;;0.98;0.50;;;;;;;;;;4799632;29;20051;-78
2023/01/16 20:51:09;;;;;;;2.90;0.55;;;;;;;;;;4800488;29;20059;-75
2023/01/16 20:53:40;;;;;;;1.33;0.40;;;;;;;;;;4800368;29;20047;-76
2023/01/16 20:56:10;;;;;;;6.38;0.93;;;;;;;;;;4800835;29;20838;-80
2023/01/16 20:58:41;;;;;;;5.05;0.55;;;;;;;;;;4799353;29;20050;-77
2023/01/16 21:01:11;;;;;;;4.97;0.50;;;;;;;;;;4800061;29;20051;-74
2023/01/16 21:03:41;;;;;;;4.25;0.57;;;;;;;;;;4800191;29;20051;-75
2023/01/16 21:06:13;;;;;;;0.93;0.40;;;;;;;;;;4800195;29;20057;-76
2023/01/16 21:08:45;;;;;;;4.97;0.50;;;;;;;;;;4800859;29;20062;-77
2023/01/16 21:14:09;;;;;;;5.70;0.70;;;;;;;;;;4783376;29;20427;-76
2023/01/16 21:22:34;;;;;;;0.68;0.32;;;;;;;;;;4783486;29;20051;-75
2023/01/16 21:25:05;;;;;;;2.97;0.65;;;;;;;;;;4799879;29;20046;-74
2023/01/16 21:27:37;;;;;;;7.43;0.80;;;;;;;;;;4798827;29;20062;-75
2023/01/16 21:30:13;;;;;;;5.93;0.75;;;;;;;;;;4799937;29;20038;-75
2023/01/16 21:32:43;;;;;;;5.20;0.85;;;;;;;;;;4799631;29;20058;-75